createdAt,value
2019-05-05T00:00:08.364Z,95.00
2019-05-05T00:01:08.334Z,95.36
2019-05-05T00:02:08.352Z,95.67
2019-05-05T00:03:08.305Z,95.46
2019-05-05T00:04:08.319Z,95.46
2019-05-05T00:05:08.745Z,95.46
2019-05-05T00:06:08.259Z,95.67
2019-05-05T00:07:08.258Z,95.46
2019-05-05T00:08:08.247Z,95.56
2019-05-05T00:09:08.337Z,95.67
2019-05-05T00:10:08.239Z,95.36
2019-05-05T00:11:08.217Z,95.78
2019-05-05T00:12:08.218Z,95.15
2019-05-05T00:13:08.195Z,95.15
2019-05-05T00:14:08.207Z,95.15
2019-05-05T00:15:08.260Z,95.25
2019-05-05T00:16:08.182Z,95.15
2019-05-05T00:17:08.908Z,95.04
2019-05-05T00:18:08.159Z,94.78
2019-05-05T00:19:08.157Z,94.98
2019-05-05T00:20:08.154Z,94.73
2019-05-05T00:21:08.102Z,95.19
2019-05-05T00:22:08.144Z,95.29
2019-05-05T00:23:08.111Z,94.98
2019-05-05T00:24:08.069Z,95.19
2019-05-05T00:25:08.104Z,95.19
2019-05-05T00:26:08.077Z,94.98
2019-05-05T00:27:08.046Z,95.61
2019-05-05T00:28:08.035Z,95.82
2019-05-05T00:29:08.021Z,95.72
2019-05-05T00:30:08.064Z,95.40
2019-05-05T00:31:08.035Z,95.19
2019-05-05T00:32:08.022Z,95.29
2019-05-05T00:33:07.991Z,95.40
2019-05-05T00:34:07.957Z,95.72
2019-05-05T00:35:07.984Z,95.29
2019-05-05T00:36:07.969Z,95.72
2019-05-05T00:37:07.916Z,96.13
2019-05-05T00:38:07.944Z,95.82
2019-05-05T00:39:07.897Z,95.92
2019-05-05T00:40:07.898Z,95.98
2019-05-05T00:41:07.907Z,95.88
2019-05-05T00:42:07.869Z,95.78
2019-05-05T00:43:07.848Z,95.46
2019-05-05T00:44:07.883Z,95.56
2019-05-05T00:45:07.894Z,95.36
2019-05-05T00:46:07.868Z,95.67
2019-05-05T00:47:07.819Z,95.40
2019-05-05T00:48:07.796Z,95.72
2019-05-05T00:49:07.789Z,95.46
2019-05-05T00:50:07.778Z,95.46
2019-05-05T00:51:07.827Z,95.50
2019-05-05T00:52:07.752Z,95.82
2019-05-05T00:53:07.747Z,95.46
2019-05-05T00:54:07.721Z,95.40
2019-05-05T00:55:07.720Z,95.50
2019-05-05T00:56:07.775Z,95.50
2019-05-05T00:57:07.735Z,95.72
2019-05-05T00:58:07.684Z,95.50
2019-05-05T00:59:07.669Z,95.72
2019-05-05T01:00:07.670Z,95.61
2019-05-05T01:01:07.661Z,95.72
2019-05-05T01:02:07.717Z,96.34
2019-05-05T01:03:07.624Z,95.92
2019-05-05T01:04:07.622Z,96.91
2019-05-05T01:05:07.622Z,96.13
2019-05-05T01:06:07.634Z,95.72
2019-05-05T01:07:07.615Z,96.13
2019-05-05T01:08:07.572Z,96.13
2019-05-05T01:09:07.569Z,95.72
2019-05-05T01:10:07.546Z,95.72
2019-05-05T01:11:07.574Z,95.86
2019-05-05T01:12:07.566Z,95.72
2019-05-05T01:13:07.512Z,95.61
2019-05-05T01:14:07.507Z,96.44
2019-05-05T01:15:07.625Z,96.44
2019-05-05T01:16:07.492Z,96.44
2019-05-05T01:17:07.479Z,96.13
2019-05-05T01:18:07.465Z,95.92
2019-05-05T01:19:07.475Z,95.82
2019-05-05T01:20:07.469Z,96.03
2019-05-05T01:21:07.431Z,95.72
2019-05-05T01:22:07.506Z,95.40
2019-05-05T01:23:07.422Z,95.40
2019-05-05T01:24:07.480Z,95.50
2019-05-05T01:25:07.377Z,95.72
2019-05-05T01:26:07.384Z,95.50
2019-05-05T01:27:07.362Z,95.50
2019-05-05T01:28:07.375Z,95.50
2019-05-05T01:29:07.363Z,95.50
2019-05-05T01:30:07.355Z,95.50
2019-05-05T01:31:07.300Z,95.76
2019-05-05T01:32:07.295Z,95.72
2019-05-05T01:33:07.296Z,95.72
2019-05-05T01:34:07.283Z,95.61
2019-05-05T01:35:07.357Z,96.13
2019-05-05T01:36:07.270Z,95.50
2019-05-05T01:37:07.245Z,95.65
2019-05-05T01:38:07.242Z,95.86
2019-05-05T01:39:07.248Z,96.23
2019-05-05T01:40:07.234Z,96.03
2019-05-05T01:41:07.198Z,95.92
2019-05-05T01:42:07.181Z,95.86
2019-05-05T01:43:07.177Z,95.82
2019-05-05T01:44:07.227Z,95.92
2019-05-05T01:45:07.183Z,95.72
2019-05-05T01:46:07.172Z,96.23
2019-05-05T01:47:07.137Z,95.82
2019-05-05T01:48:07.119Z,95.72
2019-05-05T01:49:07.111Z,95.29
2019-05-05T01:50:17.607Z,95.65
2019-05-05T01:51:07.114Z,95.29
2019-05-05T01:52:07.105Z,95.61
2019-05-05T01:53:07.065Z,96.23
2019-05-05T01:54:07.046Z,95.72
2019-05-05T01:55:07.051Z,96.03
2019-05-05T01:56:07.073Z,96.28
2019-05-05T01:57:07.047Z,95.92
2019-05-05T01:58:07.029Z,96.07
2019-05-05T01:59:06.988Z,95.72
2019-05-05T02:00:06.989Z,96.03
2019-05-05T02:01:06.968Z,96.23
2019-05-05T02:02:06.957Z,95.72
2019-05-05T02:03:06.985Z,96.97
2019-05-05T02:04:06.985Z,95.82
2019-05-05T02:05:06.930Z,95.92
2019-05-05T02:06:06.922Z,95.61
2019-05-05T02:07:06.906Z,95.92
2019-05-05T02:08:06.926Z,96.13
2019-05-05T02:09:06.882Z,95.50
2019-05-05T02:10:06.922Z,95.72
2019-05-05T02:11:06.855Z,95.61
2019-05-05T02:12:06.848Z,95.50
2019-05-05T02:13:06.861Z,95.50
2019-05-05T02:14:06.820Z,95.61
2019-05-05T02:15:06.815Z,95.50
2019-05-05T02:16:06.853Z,95.50
2019-05-05T02:17:06.788Z,95.61
2019-05-05T02:18:06.801Z,95.40
2019-05-05T02:19:06.768Z,95.40
2019-05-05T02:20:06.758Z,95.13
2019-05-05T02:21:06.779Z,95.72
2019-05-05T02:22:06.738Z,95.29
2019-05-05T02:23:06.768Z,95.65
2019-05-05T02:24:06.704Z,95.55
2019-05-05T02:25:06.722Z,95.72
2019-05-05T02:26:06.716Z,95.61
2019-05-05T02:27:06.683Z,95.61
2019-05-05T02:28:06.814Z,95.72
2019-05-05T02:29:06.748Z,96.13
2019-05-05T02:30:06.678Z,96.13
2019-05-05T02:31:06.673Z,95.82
2019-05-05T02:32:06.733Z,94.98
2019-05-05T02:33:06.622Z,95.40
2019-05-05T02:34:06.597Z,95.50
2019-05-05T02:35:06.695Z,95.40
2019-05-05T02:36:06.584Z,95.61
2019-05-05T02:37:06.580Z,95.61
2019-05-05T02:38:06.872Z,95.50
2019-05-05T02:39:06.551Z,95.61
2019-05-05T02:40:07.568Z,95.50
2019-05-05T02:41:06.524Z,95.25
2019-05-05T02:42:06.540Z,95.50
2019-05-05T02:43:06.499Z,95.72
2019-05-05T02:44:06.476Z,95.72
2019-05-05T02:45:06.537Z,95.72
2019-05-05T02:46:06.460Z,95.50
2019-05-05T02:47:06.484Z,95.50
2019-05-05T02:48:06.439Z,95.61
2019-05-05T02:49:06.425Z,95.50
2019-05-05T02:50:06.421Z,95.50
2019-05-05T02:51:07.200Z,95.92
2019-05-05T02:52:06.467Z,95.82
2019-05-05T02:53:06.386Z,96.07
2019-05-05T02:54:06.376Z,96.23
2019-05-05T02:55:06.362Z,96.44
2019-05-05T02:56:06.342Z,95.61
2019-05-05T02:57:06.427Z,96.44
2019-05-05T02:58:06.330Z,96.34
2019-05-05T02:59:06.341Z,96.55
2019-05-05T03:00:06.300Z,96.44
2019-05-05T03:01:06.292Z,96.66
2019-05-05T03:02:06.323Z,96.55
2019-05-05T03:03:06.270Z,96.34
2019-05-05T03:04:06.263Z,96.55
2019-05-05T03:05:06.284Z,96.34
2019-05-05T03:06:06.241Z,96.50
2019-05-05T03:07:06.261Z,95.72
2019-05-05T03:08:06.216Z,95.72
2019-05-05T03:09:06.198Z,96.44
2019-05-05T03:10:06.197Z,96.44
2019-05-05T03:11:06.224Z,95.92
2019-05-05T03:12:06.164Z,95.61
2019-05-05T03:13:06.158Z,96.55
2019-05-05T03:14:06.143Z,95.92
2019-05-05T03:15:06.131Z,95.61
2019-05-05T03:16:06.148Z,95.72
2019-05-05T03:17:06.177Z,96.23
2019-05-05T03:18:06.141Z,96.03
2019-05-05T03:19:06.088Z,96.03
2019-05-05T03:20:06.079Z,96.55
2019-05-05T03:21:07.434Z,95.92
2019-05-05T03:22:06.049Z,95.72
2019-05-05T03:23:06.105Z,95.92
2019-05-05T03:24:06.034Z,96.66
2019-05-05T03:25:06.017Z,95.92
2019-05-05T03:26:06.013Z,96.76
2019-05-05T03:27:06.029Z,96.34
2019-05-05T03:28:05.982Z,96.44
2019-05-05T03:29:06.004Z,96.34
2019-05-05T03:30:05.971Z,96.34
2019-05-05T03:31:05.952Z,95.98
2019-05-05T03:32:10.749Z,96.19
2019-05-05T03:33:06.936Z,96.44
2019-05-05T03:34:06.508Z,96.44
2019-05-05T03:35:05.965Z,96.34
2019-05-05T03:36:05.891Z,96.34
2019-05-05T03:37:05.880Z,96.23
2019-05-05T03:38:05.869Z,96.76
2019-05-05T03:39:05.887Z,96.03
2019-05-05T03:40:05.850Z,96.03
2019-05-05T03:41:05.863Z,95.92
2019-05-05T03:42:05.824Z,95.92
2019-05-05T03:43:05.843Z,95.92
2019-05-05T03:44:05.824Z,96.13
2019-05-05T03:45:05.793Z,96.44
2019-05-05T03:46:05.784Z,96.34
2019-05-05T03:47:05.790Z,96.03
2019-05-05T03:48:05.789Z,95.82
2019-05-05T03:49:05.744Z,96.03
2019-05-05T03:50:05.740Z,96.23
2019-05-05T03:51:18.227Z,96.13
2019-05-05T03:52:06.712Z,96.13
2019-05-05T03:53:05.745Z,96.34
2019-05-05T03:54:05.691Z,96.23
2019-05-05T03:55:05.712Z,96.28
2019-05-05T03:56:05.661Z,96.34
2019-05-05T03:57:05.686Z,96.66
2019-05-05T03:58:05.647Z,97.07
2019-05-05T03:59:05.662Z,96.66
2019-05-05T04:00:05.657Z,96.66
2019-05-05T04:01:05.735Z,96.66
2019-05-05T04:02:05.603Z,96.70
2019-05-05T04:03:05.583Z,96.76
2019-05-05T04:04:05.573Z,97.38
2019-05-05T04:05:05.644Z,97.38
2019-05-05T04:06:05.556Z,97.59
2019-05-05T04:07:05.578Z,97.07
2019-05-05T04:08:05.535Z,97.32
2019-05-05T04:09:05.511Z,97.38
2019-05-05T04:10:05.509Z,97.49
2019-05-05T04:11:05.525Z,96.76
2019-05-05T04:12:05.509Z,97.38
2019-05-05T04:13:05.470Z,97.43
2019-05-05T04:14:05.455Z,97.70
2019-05-05T04:15:05.456Z,97.22
2019-05-05T04:16:05.443Z,97.07
2019-05-05T04:17:05.538Z,97.32
2019-05-05T04:18:05.422Z,97.64
2019-05-05T04:19:05.413Z,97.64
2019-05-05T04:20:05.394Z,97.64
2019-05-05T04:21:05.384Z,97.80
2019-05-05T04:22:05.395Z,98.01
2019-05-05T04:23:05.388Z,97.85
2019-05-05T04:24:05.352Z,97.70
2019-05-05T04:25:05.355Z,97.91
2019-05-05T04:26:05.386Z,98.47
2019-05-05T04:27:05.351Z,98.16
2019-05-05T04:28:05.330Z,98.43
2019-05-05T04:29:05.544Z,97.64
2019-05-05T04:30:05.316Z,97.80
2019-05-05T04:31:05.282Z,98.43
2019-05-05T04:32:05.264Z,98.32
2019-05-05T04:33:05.282Z,98.22
2019-05-05T04:34:05.239Z,98.16
2019-05-05T04:35:05.316Z,98.16
2019-05-05T04:36:05.214Z,98.16
2019-05-05T04:37:05.235Z,98.37
2019-05-05T04:38:05.224Z,98.37
2019-05-05T04:39:05.181Z,98.26
2019-05-05T04:40:05.172Z,98.11
2019-05-05T04:41:05.161Z,98.11
2019-05-05T04:42:05.149Z,98.11
2019-05-05T04:43:05.214Z,97.95
2019-05-05T04:44:05.121Z,97.91
2019-05-05T04:45:05.119Z,97.80
2019-05-05T04:46:05.098Z,98.32
2019-05-05T04:47:05.095Z,97.85
2019-05-05T04:48:05.118Z,98.32
2019-05-05T04:49:05.084Z,98.43
2019-05-05T04:50:05.062Z,98.43
2019-05-05T04:51:05.043Z,98.22
2019-05-05T04:52:05.042Z,97.91
2019-05-05T04:53:05.065Z,98.05
2019-05-05T04:54:05.021Z,98.01
2019-05-05T04:55:05.028Z,98.43
2019-05-05T04:56:04.990Z,98.47
2019-05-05T04:57:04.982Z,98.85
2019-05-05T04:58:05.003Z,98.74
2019-05-05T04:59:04.957Z,98.43
2019-05-05T05:00:04.943Z,98.58
2019-05-05T05:01:04.965Z,98.43
2019-05-05T05:02:04.919Z,98.63
2019-05-05T05:03:04.940Z,98.53
2019-05-05T05:04:04.911Z,98.32
2019-05-05T05:05:04.899Z,98.85
2019-05-05T05:06:04.876Z,99.26
2019-05-05T05:07:04.931Z,98.28
2019-05-05T05:08:04.852Z,98.22
2019-05-05T05:09:04.839Z,98.18
2019-05-05T05:10:04.833Z,98.18
2019-05-05T05:11:04.819Z,98.69
2019-05-05T05:12:04.840Z,98.80
2019-05-05T05:13:04.819Z,97.91
2019-05-05T05:14:04.789Z,98.01
2019-05-05T05:15:04.776Z,97.80
2019-05-05T05:16:04.786Z,97.91
2019-05-05T05:17:04.756Z,98.01
2019-05-05T05:18:04.759Z,97.80
2019-05-05T05:19:04.731Z,98.22
2019-05-05T05:20:04.746Z,98.01
2019-05-05T05:21:04.707Z,98.22
2019-05-05T05:22:05.092Z,97.91
2019-05-05T05:23:04.692Z,98.11
2019-05-05T05:24:04.702Z,98.11
2019-05-05T05:25:04.692Z,98.43
2019-05-05T05:26:05.164Z,97.91
2019-05-05T05:27:05.145Z,97.70
2019-05-05T05:28:04.633Z,98.01
2019-05-05T05:29:04.680Z,97.70
2019-05-05T05:30:04.797Z,97.91
2019-05-05T05:31:04.591Z,97.70
2019-05-05T05:32:04.576Z,98.43
2019-05-05T05:33:04.600Z,98.32
2019-05-05T05:34:04.555Z,98.53
2019-05-05T05:35:04.546Z,97.86
2019-05-05T05:36:04.559Z,97.55
2019-05-05T05:37:04.524Z,97.97
2019-05-05T05:38:04.810Z,97.34
2019-05-05T05:39:04.496Z,97.65
2019-05-05T05:40:04.493Z,97.65
2019-05-05T05:41:04.489Z,97.65
2019-05-05T05:42:04.671Z,97.44
2019-05-05T05:43:04.824Z,97.65
2019-05-05T05:44:04.450Z,97.75
2019-05-05T05:45:04.438Z,97.24
2019-05-05T05:46:04.542Z,97.13
2019-05-05T05:47:04.436Z,96.98
2019-05-05T05:48:04.465Z,97.09
2019-05-05T05:49:04.572Z,97.30
2019-05-05T05:50:04.381Z,97.09
2019-05-05T05:51:04.370Z,96.56
2019-05-05T05:52:13.426Z,96.04
2019-05-05T05:53:05.372Z,95.83
2019-05-05T05:54:04.380Z,96.25
2019-05-05T05:55:04.317Z,95.62
2019-05-05T05:56:04.479Z,96.36
2019-05-05T05:57:04.480Z,95.83
2019-05-05T05:58:04.934Z,95.62
2019-05-05T05:59:04.279Z,95.83
2019-05-05T06:00:04.318Z,95.42
2019-05-05T06:01:04.476Z,95.73
2019-05-05T06:02:09.835Z,95.48
2019-05-05T06:03:05.261Z,95.58
2019-05-05T06:04:04.238Z,95.79
2019-05-05T06:05:04.381Z,95.27
2019-05-05T06:06:04.857Z,94.96
2019-05-05T06:07:04.250Z,94.12
2019-05-05T06:08:04.704Z,94.23
2019-05-05T06:09:04.344Z,94.18
2019-05-05T06:10:04.149Z,93.87
2019-05-05T06:11:04.544Z,94.08
2019-05-05T06:12:04.161Z,93.98
2019-05-05T06:13:04.327Z,94.08
2019-05-05T06:14:04.194Z,94.18
2019-05-05T06:15:04.100Z,93.56
2019-05-05T06:16:04.461Z,94.08
2019-05-05T06:17:04.294Z,93.35
2019-05-05T06:18:04.766Z,93.98
2019-05-05T06:19:04.075Z,93.24
2019-05-05T06:20:04.188Z,92.83
2019-05-05T06:21:04.603Z,93.35
2019-05-05T06:22:04.015Z,93.04
2019-05-05T06:23:04.286Z,93.98
2019-05-05T06:24:04.568Z,93.46
2019-05-05T06:25:06.480Z,93.35
2019-05-05T06:26:06.878Z,93.14
2019-05-05T06:27:03.964Z,93.35
2019-05-05T06:28:04.408Z,92.93
2019-05-05T06:29:04.518Z,92.72
2019-05-05T06:30:04.542Z,93.31
2019-05-05T06:31:04.830Z,92.68
2019-05-05T06:32:04.159Z,92.37
2019-05-05T06:33:04.902Z,92.06
2019-05-05T06:34:03.919Z,92.27
2019-05-05T06:35:03.870Z,92.27
2019-05-05T06:36:04.000Z,92.95
2019-05-05T06:37:04.335Z,92.95
2019-05-05T06:38:04.630Z,92.54
2019-05-05T06:39:04.590Z,92.22
2019-05-05T06:40:03.880Z,92.33
2019-05-05T06:41:04.206Z,92.39
2019-05-05T06:42:04.492Z,91.60
2019-05-05T06:43:04.459Z,91.66
2019-05-05T06:44:03.863Z,91.35
2019-05-05T06:45:04.217Z,91.56
2019-05-05T06:46:04.101Z,91.04
2019-05-05T06:47:04.665Z,91.35
2019-05-05T06:48:04.327Z,90.72
2019-05-05T06:49:04.389Z,90.93
2019-05-05T06:50:03.779Z,91.14
2019-05-05T06:51:04.034Z,91.31
2019-05-05T06:52:04.239Z,90.93
2019-05-05T06:53:04.278Z,90.62
2019-05-05T06:54:04.633Z,90.72
2019-05-05T06:55:03.812Z,90.41
2019-05-05T06:56:04.139Z,90.62
2019-05-05T06:57:04.468Z,89.69
2019-05-05T06:58:04.631Z,89.37
2019-05-05T06:59:04.401Z,90.72
2019-05-05T07:00:03.808Z,90.93
2019-05-05T07:01:03.740Z,90.62
2019-05-05T07:02:04.223Z,90.69
2019-05-05T07:03:07.336Z,90.58
2019-05-05T07:04:03.570Z,89.58
2019-05-05T07:05:04.134Z,89.37
2019-05-05T07:06:04.244Z,88.96
2019-05-05T07:07:05.204Z,89.69
2019-05-05T07:08:04.399Z,89.69
2019-05-05T07:09:05.341Z,90.00
2019-05-05T07:10:03.804Z,90.52
2019-05-05T07:11:04.206Z,90.41
2019-05-05T07:12:04.548Z,89.69
2019-05-05T07:13:04.958Z,89.06
2019-05-05T07:14:03.771Z,89.89
2019-05-05T07:15:04.257Z,89.89
2019-05-05T07:16:04.779Z,90.79
2019-05-05T07:17:05.100Z,90.37
2019-05-05T07:18:03.769Z,91.00
2019-05-05T07:19:04.398Z,90.89
2019-05-05T07:20:04.405Z,90.47
2019-05-05T07:21:03.792Z,90.06
2019-05-05T07:22:04.044Z,89.81
2019-05-05T07:23:05.341Z,89.70
2019-05-05T07:24:03.968Z,89.60
2019-05-05T07:25:04.695Z,88.87
2019-05-05T07:26:04.189Z,88.77
2019-05-05T07:27:04.786Z,88.46
2019-05-05T07:28:04.262Z,87.63
2019-05-05T07:29:04.573Z,88.35
2019-05-05T07:30:04.743Z,88.35
2019-05-05T07:31:04.433Z,87.63
2019-05-05T07:32:03.947Z,87.94
2019-05-05T07:33:04.594Z,88.73
2019-05-05T07:34:04.678Z,89.56
2019-05-05T07:35:04.064Z,89.77
2019-05-05T07:36:05.932Z,89.56
2019-05-05T07:37:03.822Z,89.67
2019-05-05T07:38:04.520Z,88.73
2019-05-05T07:39:03.863Z,88.28
2019-05-05T07:40:04.206Z,88.42
2019-05-05T07:41:03.717Z,87.69
2019-05-05T07:42:04.523Z,87.96
2019-05-05T07:43:04.532Z,88.28
2019-05-05T07:44:04.824Z,88.69
2019-05-05T07:45:05.463Z,87.24
2019-05-05T07:46:04.560Z,86.51
2019-05-05T07:47:03.611Z,87.03
2019-05-05T07:48:04.867Z,87.61
2019-05-05T07:49:03.861Z,88.85
2019-05-05T07:50:04.128Z,88.34
2019-05-05T07:51:05.190Z,87.68
2019-05-05T07:52:04.083Z,87.57
2019-05-05T07:53:13.931Z,87.68
2019-05-05T07:54:03.985Z,86.02
2019-05-05T07:55:03.610Z,86.26
2019-05-05T07:56:03.918Z,86.36
2019-05-05T07:57:04.229Z,86.64
2019-05-05T07:58:04.324Z,84.91
2019-05-05T07:59:03.787Z,85.33
2019-05-05T08:00:05.256Z,86.36
2019-05-05T08:01:04.652Z,86.68
2019-05-05T08:02:04.002Z,85.74
2019-05-05T08:03:03.716Z,85.85
2019-05-05T08:04:04.509Z,86.57
2019-05-05T08:05:04.649Z,85.02
2019-05-05T08:06:03.947Z,85.74
2019-05-05T08:07:04.057Z,85.50
2019-05-05T08:08:04.612Z,86.33
2019-05-05T08:09:04.115Z,85.87
2019-05-05T08:10:04.527Z,85.25
2019-05-05T08:11:04.738Z,85.25
2019-05-05T08:12:04.325Z,85.14
2019-05-05T08:13:04.646Z,83.80
2019-05-05T08:14:03.996Z,84.11
2019-05-05T08:15:04.367Z,84.25
2019-05-05T08:16:03.856Z,84.56
2019-05-05T08:17:04.134Z,84.98
2019-05-05T08:18:04.538Z,85.81
2019-05-05T08:19:03.873Z,85.97
2019-05-05T08:20:03.967Z,85.25
2019-05-05T08:21:04.268Z,85.14
2019-05-05T08:22:03.708Z,85.91
2019-05-05T08:23:04.277Z,86.29
2019-05-05T08:24:04.604Z,85.71
2019-05-05T08:25:04.066Z,85.29
2019-05-05T08:26:04.487Z,83.98
2019-05-05T08:27:04.560Z,84.50
2019-05-05T08:28:04.300Z,86.88
2019-05-05T08:29:04.682Z,86.36
2019-05-05T08:30:05.153Z,85.64
2019-05-05T08:31:03.957Z,85.64
2019-05-05T08:32:04.370Z,86.26
2019-05-05T08:33:04.489Z,86.22
2019-05-05T08:34:03.818Z,86.08
2019-05-05T08:35:14.771Z,88.36
2019-05-05T08:36:04.421Z,87.14
2019-05-05T08:37:04.384Z,88.13
2019-05-05T08:38:04.553Z,85.92
2019-05-05T08:39:03.743Z,86.44
2019-05-05T08:40:04.337Z,83.40
2019-05-05T08:41:04.403Z,80.40
2019-05-05T08:42:04.282Z,81.71
2019-05-05T08:43:04.470Z,81.99
2019-05-05T08:44:03.684Z,82.29
2019-05-05T08:45:04.451Z,79.30
2019-05-05T08:46:04.655Z,77.71
2019-05-05T08:47:04.285Z,79.27
2019-05-05T08:48:04.669Z,80.23
2019-05-05T08:49:04.290Z,79.37
2019-05-05T08:50:04.168Z,79.16
2019-05-05T08:51:04.612Z,78.50
2019-05-05T08:52:03.994Z,81.09
2019-05-05T08:53:04.287Z,78.92
2019-05-05T08:54:03.907Z,81.20
2019-05-05T08:55:04.525Z,82.50
2019-05-05T08:56:04.057Z,83.71
2019-05-05T08:57:04.209Z,78.74
2019-05-05T08:58:04.381Z,80.74
2019-05-05T08:59:03.646Z,78.56
2019-05-05T09:00:02.222Z,76.50
2019-05-05T09:01:04.207Z,75.26
2019-05-05T09:02:04.343Z,74.53
2019-05-05T09:03:03.796Z,75.57
2019-05-05T09:04:04.134Z,75.26
2019-05-05T09:05:04.131Z,75.36
2019-05-05T09:06:02.157Z,75.67
2019-05-05T09:07:02.140Z,75.81
2019-05-05T09:08:04.320Z,74.84
2019-05-05T09:09:03.845Z,76.50
2019-05-05T09:10:03.907Z,76.81
2019-05-05T09:11:04.520Z,76.70
2019-05-05T09:12:04.386Z,74.91
2019-05-05T09:13:03.801Z,76.67
2019-05-05T09:14:04.030Z,75.60
2019-05-05T09:15:04.256Z,76.53
2019-05-05T09:16:03.780Z,75.19
2019-05-05T09:17:04.270Z,73.71
2019-05-05T09:18:02.018Z,75.26
2019-05-05T09:19:03.959Z,77.11
2019-05-05T09:20:04.373Z,76.77
2019-05-05T09:21:04.203Z,74.29
2019-05-05T09:22:01.988Z,74.53
2019-05-05T09:23:03.752Z,72.78
2019-05-05T09:24:05.408Z,71.78
2019-05-05T09:25:04.150Z,72.64
2019-05-05T09:26:04.331Z,74.29
2019-05-05T09:27:14.331Z,75.01
2019-05-05T09:28:03.951Z,75.32
2019-05-05T09:29:01.895Z,70.50
2019-05-05T09:30:03.886Z,72.57
2019-05-05T09:31:04.052Z,73.33
2019-05-05T09:32:03.916Z,72.39
2019-05-05T09:33:03.574Z,72.91
2019-05-05T09:34:04.036Z,73.50
2019-05-05T09:35:24.045Z,75.05
2019-05-05T09:36:01.823Z,75.15
2019-05-05T09:37:03.682Z,73.50
2019-05-05T09:38:03.866Z,72.88
2019-05-05T09:39:01.825Z,74.02
2019-05-05T09:40:01.776Z,72.64
2019-05-05T09:41:03.731Z,74.40
2019-05-05T09:42:03.925Z,72.19
2019-05-05T09:43:03.805Z,71.33
2019-05-05T09:44:01.770Z,71.33
2019-05-05T09:45:01.710Z,73.26
2019-05-05T09:46:03.758Z,74.46
2019-05-05T09:47:01.918Z,68.24
2019-05-05T09:48:01.733Z,68.17
2019-05-05T09:49:01.665Z,70.82
2019-05-05T09:50:03.795Z,70.51
2019-05-05T09:51:01.648Z,70.62
2019-05-05T09:52:01.665Z,71.44
2019-05-05T09:53:01.645Z,68.04
2019-05-05T09:54:13.746Z,66.28
2019-05-05T09:55:03.824Z,67.32
2019-05-05T09:56:03.898Z,64.84
2019-05-05T09:57:01.633Z,65.91
2019-05-05T09:58:01.577Z,65.73
2019-05-05T09:59:03.685Z,68.44
2019-05-05T10:00:01.548Z,70.09
2019-05-05T10:01:01.544Z,70.78
2019-05-05T10:02:01.543Z,70.99
2019-05-05T10:03:03.682Z,70.03
2019-05-05T10:04:01.504Z,66.52
2019-05-05T10:05:03.801Z,66.52
2019-05-05T10:06:01.485Z,66.11
2019-05-05T10:07:01.465Z,65.88
2019-05-05T10:08:04.127Z,64.25
2019-05-05T10:09:01.450Z,62.99
2019-05-05T10:10:01.429Z,63.40
2019-05-05T10:11:01.462Z,64.04
2019-05-05T10:12:01.437Z,66.11
2019-05-05T10:13:01.402Z,66.76
2019-05-05T10:14:01.382Z,68.41
2019-05-05T10:15:01.454Z,68.27
2019-05-05T10:16:01.356Z,67.45
2019-05-05T10:17:01.469Z,69.31
2019-05-05T10:18:03.382Z,70.96
2019-05-05T10:19:01.322Z,68.90
2019-05-05T10:20:01.334Z,69.82
2019-05-05T10:21:05.969Z,69.93
2019-05-05T10:22:01.287Z,68.17
2019-05-05T10:23:01.311Z,69.82
2019-05-05T10:24:01.264Z,68.86
2019-05-05T10:25:01.288Z,69.07
2019-05-05T10:26:01.256Z,69.96
2019-05-05T10:27:01.234Z,68.21
2019-05-05T10:28:01.231Z,66.56
2019-05-05T10:29:01.336Z,68.52
2019-05-05T10:30:01.195Z,70.28
2019-05-05T10:31:01.203Z,68.49
2019-05-05T10:32:01.174Z,69.93
2019-05-05T10:33:01.166Z,70.52
2019-05-05T10:34:01.217Z,68.56
2019-05-05T10:35:01.141Z,68.05
2019-05-05T10:36:01.128Z,67.94
2019-05-05T10:37:01.124Z,65.78
2019-05-05T10:38:01.101Z,63.52
2019-05-05T10:39:01.102Z,65.89
2019-05-05T10:40:01.153Z,65.61
2019-05-05T10:41:01.074Z,68.08
2019-05-05T10:42:01.063Z,61.59
2019-05-05T10:43:01.109Z,63.45
2019-05-05T10:44:01.054Z,69.07
2019-05-05T10:45:01.032Z,66.88
2019-05-05T10:46:01.057Z,62.53
2019-05-05T10:47:01.000Z,62.23
2019-05-05T10:48:00.997Z,65.62
2019-05-05T10:49:00.986Z,66.34
2019-05-05T10:50:00.966Z,65.13
2019-05-05T10:51:00.978Z,66.27
2019-05-05T10:52:00.966Z,64.21
2019-05-05T10:53:00.937Z,63.82
2019-05-05T10:54:00.922Z,64.99
2019-05-05T10:55:00.914Z,64.50
2019-05-05T10:56:00.904Z,65.95
2019-05-05T10:57:00.908Z,66.46
2019-05-05T10:58:00.897Z,66.39
2019-05-05T10:59:00.868Z,65.77
2019-05-05T11:00:10.159Z,66.42
2019-05-05T11:01:03.962Z,67.86
2019-05-05T11:02:00.852Z,67.86
2019-05-05T11:03:00.823Z,67.97
2019-05-05T11:04:00.823Z,68.07
2019-05-05T11:05:00.792Z,68.86
2019-05-05T11:06:00.791Z,67.93
2019-05-05T11:07:00.802Z,68.04
2019-05-05T11:08:00.805Z,68.83
2019-05-05T11:09:00.751Z,67.60
2019-05-05T11:10:00.743Z,66.05
2019-05-05T11:11:00.725Z,64.71
2019-05-05T11:12:00.713Z,64.99
2019-05-05T11:13:00.723Z,67.63
2019-05-05T11:14:00.707Z,64.72
2019-05-05T11:15:00.686Z,64.11
2019-05-05T11:16:00.675Z,64.75
2019-05-05T11:17:00.659Z,66.30
2019-05-05T11:18:00.648Z,63.79
2019-05-05T11:19:00.721Z,64.72
2019-05-05T11:20:00.624Z,64.54
2019-05-05T11:21:00.614Z,64.72
2019-05-05T11:22:16.416Z,61.74
2019-05-05T11:23:00.603Z,60.02
2019-05-05T11:24:00.571Z,61.33
2019-05-05T11:25:01.264Z,65.89
2019-05-05T11:26:00.571Z,61.66
2019-05-05T11:27:00.549Z,63.93
2019-05-05T11:28:00.534Z,64.17
2019-05-05T11:29:00.547Z,64.68
2019-05-05T11:30:00.513Z,65.89
2019-05-05T11:31:00.524Z,67.12
2019-05-05T11:32:00.489Z,67.33
2019-05-05T11:33:00.479Z,63.72
2019-05-05T11:34:00.491Z,64.75
2019-05-05T11:35:00.452Z,65.47
2019-05-05T11:36:00.474Z,68.05
2019-05-05T11:37:00.433Z,65.68
2019-05-05T11:38:00.429Z,65.47
2019-05-05T11:39:00.405Z,64.78
2019-05-05T11:40:00.426Z,63.75
2019-05-05T11:41:00.384Z,65.92
2019-05-05T11:42:00.933Z,66.12
2019-05-05T11:43:00.362Z,66.61
2019-05-05T11:44:00.350Z,65.16
2019-05-05T11:45:00.336Z,60.56
2019-05-05T11:46:00.358Z,59.94
2019-05-05T11:47:00.336Z,58.29
2019-05-05T11:48:00.304Z,61.69
2019-05-05T11:49:00.295Z,60.46
2019-05-05T11:50:00.285Z,63.10
2019-05-05T11:51:00.284Z,60.02
2019-05-05T11:52:00.299Z,58.24
2019-05-05T11:53:00.247Z,60.71
2019-05-05T11:54:00.237Z,61.71
2019-05-05T11:55:09.782Z,63.84
2019-05-05T11:56:01.206Z,60.52
2019-05-05T11:57:00.199Z,64.91
2019-05-05T11:58:00.243Z,60.49
2019-05-05T11:59:00.178Z,57.49
2019-05-05T12:00:00.170Z,56.79
2019-05-05T12:01:00.150Z,61.32
2019-05-05T12:02:00.135Z,59.67
2019-05-05T12:03:00.128Z,59.91
2019-05-05T12:04:00.160Z,59.57
2019-05-05T12:05:00.110Z,61.55
2019-05-05T12:06:00.102Z,62.37
2019-05-05T12:07:00.084Z,61.35
2019-05-05T12:08:00.079Z,61.88
2019-05-05T12:09:00.082Z,62.02
2019-05-05T12:10:00.079Z,63.56
2019-05-05T12:11:00.035Z,61.74
2019-05-05T12:12:00.026Z,61.98
2019-05-05T12:13:00.026Z,62.59
2019-05-05T12:13:59.998Z,63.42
2019-05-05T12:15:00.009Z,60.53
2019-05-05T12:15:59.982Z,61.46
2019-05-05T12:17:01.247Z,63.85
2019-05-05T12:18:01.125Z,63.82
2019-05-05T12:19:00.249Z,63.42
2019-05-05T12:19:59.981Z,63.75
2019-05-05T12:20:59.923Z,63.93
2019-05-05T12:21:59.910Z,63.03
2019-05-05T12:22:59.921Z,61.82
2019-05-05T12:23:59.888Z,65.40
2019-05-05T12:24:59.875Z,65.47
2019-05-05T12:25:59.942Z,66.78
2019-05-05T12:26:59.855Z,63.35
2019-05-05T12:27:59.849Z,65.89
2019-05-05T12:28:59.830Z,65.97
2019-05-05T12:29:59.826Z,63.78
2019-05-05T12:30:59.846Z,61.93
2019-05-05T12:31:59.816Z,65.70
2019-05-05T12:32:59.789Z,59.75
2019-05-05T12:33:59.782Z,61.00
2019-05-05T12:34:59.766Z,61.55
2019-05-05T12:35:59.780Z,61.24
2019-05-05T12:36:59.775Z,58.23
2019-05-05T12:37:59.736Z,58.75
2019-05-05T12:38:59.725Z,58.23
2019-05-05T12:39:59.737Z,59.47
2019-05-05T12:40:59.710Z,57.03
2019-05-05T12:41:59.719Z,58.06
2019-05-05T12:42:59.687Z,59.31
2019-05-05T12:43:59.666Z,57.78
2019-05-05T12:44:59.658Z,58.73
2019-05-05T12:45:59.659Z,58.42
2019-05-05T12:46:59.634Z,61.84
2019-05-05T12:47:59.651Z,60.09
2019-05-05T12:48:59.646Z,60.91
2019-05-05T12:49:59.600Z,60.09
2019-05-05T12:50:59.586Z,60.74
2019-05-05T12:51:59.578Z,63.90